Terminal Aerodrome Forecast
Issued by NWS

Home | Current Version | Previous Version | Text Only | Print | Product List | Glossary On
Versions: 1 2 3 4 5 6 7 8 9 10 11 12 13 14 15 16 17 18 19 20 21 22 23 24 25 26 27 28 29 30 31 32 33 34 35
000
FTUS44 KHGX 270521
TAFCXO
TAF
KCXO 270521Z 2706/2806 15008KT P6SM SCT015 BKN022 OVC035
     FM271100 15004KT P6SM MIFG BKN015 OVC022
     FM271400 17009KT P6SM BKN025
      TEMPO 2720/2724 BKN035
     FM280300 18007KT P6SM BKN025=

USA.gov is the U.S. government's official web portal to all federal, state and local government web resources and services.